Time;durP1;ratioP1;P1;durP2;ratioP2;P2;SDS_P1;SDS_P2;PMS_P1;PMS_P2;Temp;Humidity;BMP_temperature;BMP_pressure;BME280_temperature;BME280_humidity;BME280_pressure;Samples;Min_cycle;Max_cycle;Signal;HPM_P1;HPM_P2
2022/06/02 00:02:11;;;;;;;6.30;4.30;;;;;;;24.74;52.02;100867.64;106206;1289;74794;-81
2022/06/02 00:04:56;;;;;;;6.80;4.10;;;;;;;24.75;52.09;100867.25;106374;1288;61462;-81
2022/06/02 00:07:51;;;;;;;5.40;3.90;;;;;;;24.74;52.07;100864.60;106230;1289;61354;-79
2022/06/02 00:10:30;;;;;;;8.40;4.30;;;;;;;24.74;52.05;100858.69;106321;1289;73850;-81
2022/06/02 00:13:04;;;;;;;5.20;4.10;;;;;;;24.74;52.08;100860.65;106368;1289;74171;-82
2022/06/02 00:15:42;;;;;;;5.70;3.80;;;;;;;24.74;52.00;100854.17;106390;1288;61257;-81
2022/06/02 00:18:29;;;;;;;4.90;3.90;;;;;;;24.74;52.00;100854.18;106162;1289;61176;-83
2022/06/02 00:21:00;;;;;;;5.30;3.80;;;;;;;24.74;52.21;100860.28;106219;1289;72970;-81
2022/06/02 00:23:34;;;;;;;5.60;3.90;;;;;;;24.74;52.13;100857.59;106354;1289;74995;-84
2022/06/02 00:26:29;;;;;;;5.00;3.90;;;;;;;24.74;52.12;100855.41;106382;1289;61247;-82
2022/06/02 00:29:16;;;;;;;5.40;4.00;;;;;;;24.74;52.08;100860.11;106192;1288;61301;-81
2022/06/02 00:32:04;;;;;;;5.50;3.80;;;;;;;24.74;52.14;100862.48;106241;1287;72824;-80
2022/06/02 00:35:04;;;;;;;6.90;3.90;;;;;;;24.74;52.14;100864.09;107171;1283;75973;-82
2022/06/02 00:37:45;;;;;;;5.70;3.90;;;;;;;24.73;52.18;100864.86;107066;1283;61480;-80
2022/06/02 00:40:11;;;;;;;6.20;4.10;;;;;;;24.73;52.16;100858.04;107223;1283;62060;-80
2022/06/02 00:42:48;;;;;;;5.90;4.10;;;;;;;24.74;52.02;100856.73;106635;1283;61262;-82
2022/06/02 00:45:15;;;;;;;7.50;4.20;;;;;;;24.73;52.18;100848.48;107217;1283;74703;-81
2022/06/02 00:48:12;;;;;;;5.60;4.00;;;;;;;24.73;52.07;100851.89;106829;1283;61183;-81
2022/06/02 00:50:41;;;;;;;6.00;3.80;;;;;;;24.73;52.13;100849.56;107200;1283;61155;-81
2022/06/02 00:53:13;;;;;;;;;;;;;;;24.73;52.02;100848.32;106861;1284;72659;-81
2022/06/02 00:59:14;;;;;;;6.00;4.10;;;;;;;24.71;52.26;100840.54;107238;1283;61404;-81
2022/06/02 01:01:39;;;;;;;5.80;3.90;;;;;;;24.71;52.19;100840.02;106383;1289;61381;-81
2022/06/02 01:04:09;;;;;;;4.70;3.60;;;;;;;24.71;52.19;100841.28;106226;1289;61267;-81
2022/06/02 01:06:59;;;;;;;5.80;4.10;;;;;;;24.72;52.17;100836.73;106210;1289;74469;-79
2022/06/02 01:09:31;;;;;;;5.60;4.00;;;;;;;24.71;52.23;100829.91;106082;1289;61688;-80
2022/06/02 01:12:25;;;;;;;6.20;4.00;;;;;;;24.71;52.19;100830.82;106408;1288;61173;-82
2022/06/02 01:15:22;;;;;;;7.00;3.70;;;;;;;24.71;52.25;100830.11;105799;1294;73339;-81
2022/06/02 01:18:03;;;;;;;5.70;4.20;;;;;;;24.71;52.27;100832.48;105818;1293;75690;-81
2022/06/02 01:20:38;;;;;;;6.00;3.90;;;;;;;24.72;52.20;100834.23;105726;1294;61135;-81
2022/06/02 01:23:42;;;;;;;6.50;4.10;;;;;;;24.71;52.33;100831.59;105733;1294;61224;-83
2022/06/02 01:26:43;;;;;;;6.30;4.20;;;;;;;24.71;52.31;100832.17;105807;1294;73920;-81
2022/06/02 01:29:27;;;;;;;6.90;4.40;;;;;;;24.71;52.28;100834.33;105539;1295;74701;-81
2022/06/02 01:32:06;;;;;;;6.30;4.10;;;;;;;24.71;52.31;100829.99;105817;1294;61173;-81
2022/06/02 01:34:45;;;;;;;;;;;;;;;24.71;52.21;100827.27;105844;1293;61154;-83
2022/06/02 01:37:23;;;;;;;;;;;;;;;24.69;52.33;100826.05;105849;1294;74134;-83
2022/06/02 01:39:57;;;;;;;6.20;3.80;;;;;;;24.68;52.25;100824.15;105999;1290;74691;-81
2022/06/02 01:42:26;;;;;;;6.80;4.00;;;;;;;24.68;52.17;100825.89;105771;1289;61189;-80
2022/06/02 01:45:11;;;;;;;5.80;4.10;;;;;;;24.68;52.30;100827.34;106412;1289;60034;-81
2022/06/02 01:47:41;;;;;;;5.50;3.90;;;;;;;24.69;52.29;100828.02;105908;1291;72759;-82
2022/06/02 01:50:22;;;;;;;5.70;3.80;;;;;;;24.68;52.27;100826.61;106241;1289;75648;-83
2022/06/02 01:52:59;;;;;;;5.30;4.00;;;;;;;24.68;52.26;100824.81;106938;1283;61256;-82
2022/06/02 01:56:03;;;;;;;4.60;3.60;;;;;;;24.68;52.27;100824.08;106824;1284;61561;-82
2022/06/02 01:58:50;;;;;;;7.30;4.50;;;;;;;24.68;52.32;100820.52;107210;1283;71943;-83
2022/06/02 02:01:35;;;;;;;5.80;3.90;;;;;;;24.68;52.41;100819.76;107183;1283;75768;-82
2022/06/02 02:04:43;;;;;;;6.60;3.90;;;;;;;24.68;52.36;100820.69;106890;1283;61243;-82
2022/06/02 02:07:31;;;;;;;5.20;3.90;;;;;;;24.68;52.38;100823.21;106483;1283;61281;-79
2022/06/02 02:10:27;;;;;;;7.20;4.20;;;;;;;24.68;52.39;100826.84;107206;1282;73252;-81
2022/06/02 02:13:23;;;;;;;5.50;4.10;;;;;;;24.68;52.39;100828.64;107180;1283;74868;-81
2022/06/02 02:15:53;;;;;;;6.00;3.80;;;;;;;24.68;52.38;100830.04;106921;1283;61144;-83
2022/06/02 02:18:41;;;;;;;6.40;4.20;;;;;;;24.68;52.36;100835.98;107230;1283;61595;-81
2022/06/02 02:21:32;;;;;;;6.00;4.30;;;;;;;24.68;52.45;100840.50;107009;1283;73916;-81
2022/06/02 02:24:01;;;;;;;5.90;4.20;;;;;;;24.68;52.34;100841.58;107197;1283;74625;-81
2022/06/02 02:26:39;;;;;;;5.30;4.10;;;;;;;24.68;52.34;100845.70;107214;1283;61764;-81
2022/06/02 02:29:26;;;;;;;5.60;3.90;;;;;;;24.68;52.43;100841.01;106884;1283;62896;-83
2022/06/02 02:32:24;;;;;;;6.50;4.00;;;;;;;24.68;52.33;100844.08;107012;1283;72951;-82
2022/06/02 02:34:53;;;;;;;5.30;3.80;;;;;;;24.68;52.45;100843.71;105919;1289;73349;-81
2022/06/02 02:37:47;;;;;;;6.30;4.00;;;;;;;24.68;52.42;100843.52;106197;1289;61179;-82
2022/06/02 02:40:18;;;;;;;6.40;3.70;;;;;;;24.68;52.53;100839.22;106212;1288;61838;-82
2022/06/02 02:42:51;;;;;;;6.10;4.20;;;;;;;24.69;52.48;100839.00;106020;1290;72303;-82
2022/06/02 02:45:26;;;;;;;6.50;4.00;;;;;;;24.69;52.50;100835.73;106094;1289;74462;-82
2022/06/02 02:48:11;;;;;;;5.90;4.20;;;;;;;24.69;52.52;100835.19;106070;1290;61415;-81
2022/06/02 02:50:42;;;;;;;5.60;4.10;;;;;;;24.69;52.37;100831.95;106110;1289;61275;-80
2022/06/02 02:53:42;;;;;;;7.10;4.10;;;;;;;24.69;52.54;100828.17;106079;1290;72728;-82
2022/06/02 02:56:33;;;;;;;5.90;4.10;;;;;;;24.69;52.38;100830.84;105527;1291;75900;-83
2022/06/02 02:59:03;;;;;;;5.10;3.70;;;;;;;24.69;52.46;100830.30;105522;1295;61317;-82
2022/06/02 03:01:47;;;;;;;6.20;3.80;;;;;;;24.69;52.44;100832.45;105499;1294;61267;-79
2022/06/02 03:04:25;;;;;;;4.70;3.50;;;;;;;24.69;52.52;100832.84;105697;1293;73662;-83
2022/06/02 03:06:54;;;;;;;5.00;3.60;;;;;;;24.70;52.50;100831.51;105653;1294;75832;-81
2022/06/02 03:09:45;;;;;;;5.20;3.90;;;;;;;24.70;52.41;100830.81;105638;1295;61498;-81
2022/06/02 03:12:38;;;;;;;6.00;3.60;;;;;;;24.69;52.42;100831.92;105830;1290;61174;-81
2022/06/02 03:15:07;;;;;;;4.80;3.70;;;;;;;24.70;52.49;100834.59;106199;1288;73619;-82
2022/06/02 03:17:44;;;;;;;;;;;;;;;24.70;52.44;100833.48;106246;1289;75751;-82
2022/06/02 03:20:54;;;;;;;6.20;3.60;;;;;;;24.68;52.58;100834.59;106199;1289;61367;-82
2022/06/02 03:23:54;;;;;;;5.20;3.90;;;;;;;24.68;52.56;100834.70;105494;1292;61137;-81
2022/06/02 03:26:30;;;;;;;5.40;3.70;;;;;;;24.69;52.53;100836.83;105478;1294;72513;-83
2022/06/02 03:29:06;;;;;;;5.80;4.10;;;;;;;24.69;52.38;100841.50;105487;1292;75535;-85
2022/06/02 03:31:43;;;;;;;6.00;4.00;;;;;;;24.69;52.51;100849.03;105505;1294;61379;-81
2022/06/02 03:34:26;;;;;;;5.60;4.00;;;;;;;24.70;52.37;100852.41;105478;1295;61557;-79
2022/06/02 03:37:39;;;;;;;5.30;3.80;;;;;;;24.69;52.38;100861.96;105875;1290;72868;-82
2022/06/02 03:40:31;;;;;;;4.80;3.70;;;;;;;24.69;52.46;100867.94;106164;1289;74783;-78
2022/06/02 03:43:09;;;;;;;5.40;3.80;;;;;;;24.69;52.45;100871.16;106223;1289;61415;-82
2022/06/02 03:45:44;;;;;;;6.80;3.80;;;;;;;24.70;52.53;100873.83;106216;1289;61305;-80
2022/06/02 03:48:29;;;;;;;5.90;4.00;;;;;;;24.69;52.53;100867.90;106198;1289;72933;-81
2022/06/02 03:51:12;;;;;;;6.40;4.20;;;;;;;24.70;52.38;100873.63;106185;1289;74555;-82
2022/06/02 03:53:45;;;;;;;5.90;3.70;;;;;;;24.69;52.54;100876.38;106221;1288;61223;-85
2022/06/02 03:56:43;;;;;;;8.20;4.60;;;;;;;24.69;52.53;100874.23;106177;1289;61736;-81
2022/06/02 03:59:47;;;;;;;6.10;4.30;;;;;;;24.69;52.57;100877.13;105859;1289;73629;-82
2022/06/02 04:02:19;;;;;;;9.40;4.80;;;;;;;24.69;52.39;100876.98;106351;1289;75623;-82
2022/06/02 04:05:09;;;;;;;8.50;4.70;;;;;;;24.69;52.47;100877.87;106253;1289;61259;-82
2022/06/02 04:07:44;;;;;;;8.70;5.00;;;;;;;24.68;52.26;100880.45;106258;1289;61386;-84
2022/06/02 04:10:40;;;;;;;7.50;5.00;;;;;;;24.68;52.16;100884.97;106331;1289;73775;-81
2022/06/02 04:13:38;;;;;;;8.80;5.10;;;;;;;24.67;52.05;100890.41;106185;1289;74821;-83
2022/06/02 04:16:29;;;;;;;10.90;6.20;;;;;;;24.67;52.17;100889.88;106228;1289;61382;-79
2022/06/02 04:22:36;;;;;;;15.30;7.70;;;;;;;24.67;51.98;100888.84;105605;1293;74028;-81
2022/06/02 04:25:17;;;;;;;15.90;8.00;;;;;;;24.67;51.87;100894.24;105514;1295;76053;-84
2022/06/02 04:27:50;;;;;;;12.10;7.80;;;;;;;24.67;51.83;100893.52;105635;1293;61229;-83
2022/06/02 04:30:26;;;;;;;11.50;7.30;;;;;;;24.67;51.64;100897.45;105572;1293;61432;-80
2022/06/02 04:33:10;;;;;;;15.40;8.60;;;;;;;24.67;51.70;100898.65;105388;1295;72515;-80
2022/06/02 04:35:43;;;;;;;17.60;8.50;;;;;;;24.67;51.48;100897.95;105575;1289;74733;-81
2022/06/02 04:38:37;;;;;;;15.10;7.30;;;;;;;24.67;51.37;100896.91;105875;1290;61116;-82
2022/06/02 04:41:19;;;;;;;15.90;8.80;;;;;;;24.64;51.23;100899.12;105947;1288;61285;-78
2022/06/02 04:44:07;;;;;;;20.90;9.30;;;;;;;24.63;51.10;100906.23;105768;1289;73615;-80
2022/06/02 04:46:47;;;;;;;17.40;10.00;;;;;;;24.62;51.07;100900.02;105972;1289;74795;-79
2022/06/02 04:49:31;;;;;;;16.30;9.00;;;;;;;24.61;51.09;100900.09;105717;1290;60707;-81
2022/06/02 04:52:35;;;;;;;15.50;8.80;;;;;;;24.60;50.99;100897.41;106022;1289;61262;-80
2022/06/02 04:55:06;;;;;;;18.30;9.70;;;;;;;24.61;50.83;100900.80;106018;1289;73838;-81
2022/06/02 04:57:52;;;;;;;17.70;9.30;;;;;;;24.60;50.87;100896.88;105295;1291;75162;-80
2022/06/02 05:00:23;;;;;;;20.30;9.20;;;;;;;24.59;50.95;100899.47;106266;1283;61157;-80
2022/06/02 05:02:52;;;;;;;19.20;9.80;;;;;;;24.59;50.96;100898.41;106469;1283;60310;-80
2022/06/02 05:05:23;;;;;;;19.10;9.10;;;;;;;24.58;50.93;100904.09;106921;1283;72524;-82
2022/06/02 05:08:35;;;;;;;17.80;8.50;;;;;;;24.59;50.88;100905.63;106551;1283;74707;-80
2022/06/02 05:11:38;;;;;;;15.60;7.70;;;;;;;24.61;50.80;100908.20;106903;1283;61578;-81
2022/06/02 05:14:28;;;;;;;15.20;7.40;;;;;;;24.65;50.70;100906.47;106909;1283;61332;-79
2022/06/02 05:16:59;;;;;;;14.50;6.80;;;;;;;24.68;50.72;100901.64;106715;1283;73829;-80
2022/06/02 05:19:34;;;;;;;13.30;7.50;;;;;;;24.71;50.56;100905.70;106588;1283;74568;-80
2022/06/02 05:22:29;;;;;;;14.80;7.10;;;;;;;24.74;50.53;100909.61;106916;1283;61177;-80
2022/06/02 05:25:17;;;;;;;11.30;6.60;;;;;;;24.76;50.36;100907.65;106653;1283;61149;-80
2022/06/02 05:28:22;;;;;;;15.10;6.70;;;;;;;24.79;50.36;100906.89;106850;1283;71513;-81
2022/06/02 05:30:58;;;;;;;11.40;6.20;;;;;;;24.81;50.20;100909.22;106105;1289;75037;-81
2022/06/02 05:33:43;;;;;;;13.70;6.10;;;;;;;24.83;50.08;100908.86;106109;1289;61245;-81
2022/06/02 05:36:26;;;;;;;14.30;6.30;;;;;;;24.86;50.12;100910.71;105985;1289;61703;-80
2022/06/02 05:39:11;;;;;;;9.90;5.70;;;;;;;24.87;49.98;100910.16;105502;1289;73972;-80
2022/06/02 05:41:48;;;;;;;17.40;5.70;;;;;;;24.83;49.73;100908.13;105375;1289;75605;-79
2022/06/02 05:44:55;;;;;;;14.50;6.30;;;;;;;24.81;49.69;100916.45;106002;1288;61239;-80
2022/06/02 05:47:44;;;;;;;16.50;6.70;;;;;;;24.78;49.56;100914.48;105565;1289;61124;-80
2022/06/02 05:50:16;;;;;;;14.00;6.30;;;;;;;24.77;49.38;100911.54;105546;1289;72865;-80
2022/06/02 05:53:03;;;;;;;18.00;6.10;;;;;;;24.77;49.44;100910.27;106032;1289;74637;-82
2022/06/02 05:55:39;;;;;;;12.60;6.00;;;;;;;24.79;49.32;100908.00;106027;1289;61221;-83
2022/06/02 05:58:42;;;;;;;15.70;6.40;;;;;;;24.80;49.30;100910.73;105945;1289;61426;-81
2022/06/02 06:01:31;;;;;;;12.70;6.00;;;;;;;24.82;49.12;100918.34;105905;1289;72688;-81
2022/06/02 06:04:37;;;;;;;13.00;6.20;;;;;;;24.82;49.03;100916.73;106215;1289;75802;-81
2022/06/02 06:07:15;;;;;;;14.90;5.90;;;;;;;24.77;48.92;100921.77;106662;1283;61018;-81
2022/06/02 06:10:07;;;;;;;12.10;6.10;;;;;;;24.80;48.82;100923.15;107420;1283;60436;-82
2022/06/02 06:12:48;;;;;;;15.40;6.80;;;;;;;24.82;48.84;100923.66;107682;1282;72472;-81
2022/06/02 06:15:26;;;;;;;17.10;5.30;;;;;;;24.82;48.84;100924.10;106593;1283;809618;-81
2022/06/02 06:18:14;;;;;;;12.40;6.20;;;;;;;24.86;48.96;100928.61;106976;1283;61032;-80
2022/06/02 06:21:05;;;;;;;15.10;6.80;;;;;;;24.89;48.83;100924.52;106932;1283;61194;-81
2022/06/02 06:23:58;;;;;;;14.90;5.80;;;;;;;24.88;48.86;100921.54;106790;1283;73385;-80
2022/06/02 06:26:45;;;;;;;13.00;5.60;;;;;;;24.85;48.54;100925.21;107095;1282;75736;-80
2022/06/02 06:29:29;;;;;;;10.70;5.60;;;;;;;24.85;48.57;100927.94;106922;1283;61027;-80
2022/06/02 06:32:15;;;;;;;11.20;6.20;;;;;;;24.86;48.43;100928.56;106951;1282;61284;-80
2022/06/02 06:35:03;;;;;;;11.70;5.70;;;;;;;24.86;48.44;100926.21;106600;1283;72841;-80
2022/06/02 06:37:45;;;;;;;11.20;5.70;;;;;;;24.89;48.37;100923.95;107463;1283;75926;-80
2022/06/02 06:40:42;;;;;;;11.70;6.10;;;;;;;24.92;48.40;100929.13;106856;1283;59330;-79
2022/06/02 06:43:15;;;;;;;15.80;6.10;;;;;;;24.96;48.41;100934.09;106868;1283;61505;-79
2022/06/02 06:46:06;;;;;;;15.50;5.70;;;;;;;24.97;48.57;100934.13;106631;1283;72773;-81
2022/06/02 06:48:37;;;;;;;11.20;5.80;;;;;;;25.00;48.98;100932.41;106149;1289;76047;-81
2022/06/02 06:51:21;;;;;;;9.80;6.30;;;;;;;25.03;49.27;100931.96;106121;1288;61283;-79
2022/06/02 06:54:14;;;;;;;10.60;6.80;;;;;;;25.04;49.33;100928.66;106161;1289;61144;-79
2022/06/02 06:56:50;;;;;;;9.90;6.00;;;;;;;25.04;49.16;100932.96;106201;1289;72662;-80
2022/06/02 06:59:47;;;;;;;16.70;6.10;;;;;;;25.04;49.18;100931.36;106047;1289;74782;-80
2022/06/02 07:02:35;;;;;;;16.10;6.60;;;;;;;25.04;49.07;100928.45;105945;1289;59771;-81
2022/06/02 07:05:20;;;;;;;23.10;7.20;;;;;;;25.02;48.98;100928.13;106198;1289;60515;-80
2022/06/02 07:08:04;;;;;;;12.80;6.20;;;;;;;25.01;48.86;100923.89;106079;1289;75398;-79
2022/06/02 07:10:37;;;;;;;13.20;6.90;;;;;;;25.00;48.92;100922.91;106157;1289;75773;-79
2022/06/02 07:13:38;;;;;;;12.80;6.70;;;;;;;25.00;48.78;100927.23;106780;1289;60399;-80
2022/06/02 07:16:21;;;;;;;14.30;6.40;;;;;;;24.98;48.94;100924.29;106517;1289;61253;-81
2022/06/02 07:18:58;;;;;;;13.80;6.60;;;;;;;25.03;49.20;100927.17;106751;1289;72739;-81
2022/06/02 07:21:45;;;;;;;9.30;6.30;;;;;;;25.07;49.58;100926.45;106113;1289;74576;-80
2022/06/02 07:24:31;;;;;;;9.90;6.20;;;;;;;25.09;49.51;100930.36;106086;1289;61520;-83
2022/06/02 07:26:58;;;;;;;14.00;6.60;;;;;;;25.11;49.38;100928.75;106595;1284;61391;-80
2022/06/02 07:29:43;;;;;;;12.80;5.80;;;;;;;25.13;49.37;100925.96;107131;1283;72814;-81
2022/06/02 07:32:46;;;;;;;20.10;7.20;;;;;;;25.16;49.39;100923.35;107712;1282;75747;-80
2022/06/02 07:35:51;;;;;;;15.50;7.20;;;;;;;25.19;49.75;100925.90;106816;1282;61349;-80
2022/06/02 07:38:38;;;;;;;23.70;7.10;;;;;;;25.22;49.98;100927.45;106034;1283;61301;-80
2022/06/02 07:41:22;;;;;;;23.40;7.30;;;;;;;25.26;50.15;100924.27;106155;1289;72531;-80
2022/06/02 07:44:25;;;;;;;17.90;7.10;;;;;;;25.27;50.44;100927.17;106195;1289;73763;-81
2022/06/02 07:47:23;;;;;;;20.90;7.20;;;;;;;25.29;50.23;100930.33;105787;1289;60022;-79
2022/06/02 07:50:13;;;;;;;12.80;7.30;;;;;;;25.30;50.30;100933.25;105742;1289;61272;-81
2022/06/02 07:53:04;;;;;;;14.90;7.10;;;;;;;25.32;50.06;100938.36;105883;1288;73688;-81
2022/06/02 07:55:54;;;;;;;9.50;6.20;;;;;;;25.31;49.96;100941.45;105767;1288;74412;-80
2022/06/02 07:58:44;;;;;;;13.00;6.60;;;;;;;25.33;49.74;100942.61;105658;1289;61558;-81
2022/06/02 08:01:22;;;;;;;17.90;6.20;;;;;;;25.34;49.64;100936.92;105774;1289;61814;-83
2022/06/02 08:04:37;;;;;;;9.30;6.20;;;;;;;25.35;49.65;100939.91;105744;1288;73254;-82
2022/06/02 08:07:07;;;;;;;12.00;6.90;;;;;;;25.32;49.35;100938.16;105460;1289;74617;-81
2022/06/02 08:09:55;;;;;;;21.90;7.70;;;;;;;25.31;49.35;100940.06;105350;1289;61525;-80
2022/06/02 08:12:39;;;;;;;20.10;7.40;;;;;;;25.31;49.56;100936.20;106405;1289;59831;-79
2022/06/02 08:15:46;;;;;;;13.80;7.20;;;;;;;25.34;49.80;100935.30;105812;1289;74055;-82
2022/06/02 08:18:33;;;;;;;11.10;6.90;;;;;;;25.36;49.64;100931.70;106452;1283;75171;-80
2022/06/02 08:21:15;;;;;;;16.50;7.30;;;;;;;25.36;49.56;100933.52;106853;1283;59600;-81
2022/06/02 08:24:02;;;;;;;13.90;6.20;;;;;;;25.35;49.88;100934.48;106728;1283;60442;-80
2022/06/02 08:27:12;;;;;;;9.70;5.90;;;;;;;25.36;49.92;100935.31;107000;1282;73307;-81
2022/06/02 08:29:47;;;;;;;10.60;6.10;;;;;;;25.39;49.62;100937.55;106786;1282;75625;-80
2022/06/02 08:32:20;;;;;;;11.40;6.40;;;;;;;25.41;49.53;100938.13;106998;1283;61252;-79
2022/06/02 08:35:04;;;;;;;10.80;6.50;;;;;;;25.41;49.64;100943.30;106933;1283;61193;-80
2022/06/02 08:38:07;;;;;;;9.50;6.10;;;;;;;25.43;49.49;100942.27;106924;1283;72526;-82
2022/06/02 08:40:58;;;;;;;9.80;5.80;;;;;;;25.44;49.16;100940.72;106534;1284;76029;-79
2022/06/02 08:43:57;;;;;;;10.80;6.40;;;;;;;25.45;48.61;100941.02;106906;1283;61463;-81
2022/06/02 08:46:40;;;;;;;10.00;6.00;;;;;;;25.45;48.59;100940.23;106917;1283;61098;-83
2022/06/02 08:49:39;;;;;;;11.50;6.20;;;;;;;25.47;48.42;100943.91;106955;1283;72563;-81
2022/06/02 08:52:17;;;;;;;10.70;6.00;;;;;;;25.46;48.22;100946.88;106926;1283;75057;-79
2022/06/02 08:55:05;;;;;;;14.70;6.90;;;;;;;25.47;48.25;100944.42;106884;1283;61522;-80
2022/06/02 08:57:46;;;;;;;12.60;7.30;;;;;;;25.48;48.14;100942.77;106813;1283;61040;-80
2022/06/02 09:00:27;;;;;;;16.00;7.50;;;;;;;25.49;48.18;100946.63;106316;1283;72701;-80
2022/06/02 09:03:01;;;;;;;16.70;7.70;;;;;;;25.48;48.27;100944.91;106971;1283;74679;-80
2022/06/02 09:05:49;;;;;;;11.90;7.20;;;;;;;25.48;48.15;100944.55;106928;1283;62050;-80
2022/06/02 09:08:46;;;;;;;9.30;6.50;;;;;;;25.49;48.18;100948.92;106875;1283;61243;-79
2022/06/02 09:11:42;;;;;;;15.40;6.80;;;;;;;25.53;48.12;100946.05;106867;1283;72558;-80
2022/06/02 09:14:29;;;;;;;14.20;7.00;;;;;;;25.56;47.75;100944.20;106601;1284;75725;-80
2022/06/02 09:17:06;;;;;;;11.20;7.10;;;;;;;25.58;47.64;100945.29;106811;1283;61219;-80
2022/06/02 09:19:35;;;;;;;13.00;7.40;;;;;;;25.58;47.45;100944.31;106607;1284;60247;-80
2022/06/02 09:22:09;;;;;;;12.20;6.90;;;;;;;25.59;47.52;100945.86;106885;1282;72613;-80
2022/06/02 09:24:43;;;;;;;12.00;7.10;;;;;;;25.59;47.41;100943.73;106938;1283;74796;-80
2022/06/02 09:27:31;;;;;;;11.70;6.00;;;;;;;25.58;47.55;100945.57;106745;1284;61345;-82
2022/06/02 09:30:08;;;;;;;14.20;6.30;;;;;;;25.60;47.24;100943.30;107094;1283;61149;-81
2022/06/02 09:33:01;;;;;;;14.50;5.90;;;;;;;25.63;47.04;100943.27;106548;1284;72657;-82
2022/06/02 09:35:33;;;;;;;9.80;6.10;;;;;;;25.64;46.87;100944.95;106916;1284;74774;-81
2022/06/02 09:38:11;;;;;;;12.20;6.10;;;;;;;25.63;46.75;100942.48;106813;1283;61696;-79
2022/06/02 09:41:00;;;;;;;11.30;7.00;;;;;;;25.62;46.68;100942.92;106509;1284;61262;-80
2022/06/02 09:44:01;;;;;;;10.90;6.30;;;;;;;25.62;46.72;100943.65;106654;1283;72592;-80
2022/06/02 09:47:01;;;;;;;10.90;6.90;;;;;;;25.60;46.88;100941.31;106423;1283;74779;-80
2022/06/02 09:49:54;;;;;;;12.10;7.90;;;;;;;25.56;46.93;100945.05;106778;1283;61262;-79
2022/06/02 09:52:38;;;;;;;9.80;7.10;;;;;;;25.54;47.24;100937.53;107724;1283;60433;-79
2022/06/02 09:55:22;;;;;;;10.20;7.80;;;;;;;25.52;47.23;100940.05;107296;1283;64106;-79
2022/06/02 09:58:25;;;;;;;12.60;8.20;;;;;;;25.50;47.49;100942.49;106779;1283;74702;-82
2022/06/02 10:01:18;;;;;;;12.00;9.00;;;;;;;25.48;47.58;100938.90;106818;1283;61317;-82
2022/06/02 10:04:23;;;;;;;14.20;10.10;;;;;;;25.47;47.51;100938.14;106909;1283;61182;-78
2022/06/02 10:07:39;;;;;;;18.40;11.60;;;;;;;25.45;47.94;100932.70;106881;1282;74168;-82
2022/06/02 10:10:30;;;;;;;13.70;10.50;;;;;;;25.43;47.90;100930.20;106134;1286;74533;-80
2022/06/02 10:13:11;;;;;;;14.90;10.00;;;;;;;25.41;48.13;100930.30;106079;1287;61066;-78
2022/06/02 10:16:03;;;;;;;15.00;10.00;;;;;;;25.40;48.25;100929.51;106267;1286;61254;-79
2022/06/02 10:18:40;;;;;;;14.30;9.80;;;;;;;25.39;48.37;100927.27;106298;1287;73991;-81
2022/06/02 10:21:27;;;;;;;14.40;10.30;;;;;;;25.38;48.40;100925.00;106315;1287;75786;-80
2022/06/02 10:24:08;;;;;;;15.80;9.40;;;;;;;25.36;48.61;100926.79;106214;1287;61397;-81
2022/06/02 10:27:01;;;;;;;11.40;8.30;;;;;;;25.35;48.64;100928.14;106149;1287;61254;-81
2022/06/02 10:29:43;;;;;;;14.20;8.20;;;;;;;25.34;48.69;100924.84;106641;1287;72468;-80
2022/06/02 10:32:17;;;;;;;11.40;7.90;;;;;;;25.33;48.74;100921.48;106193;1287;74802;-81
2022/06/02 10:35:07;;;;;;;10.90;7.90;;;;;;;25.33;48.87;100918.45;106387;1287;61117;-80
2022/06/02 10:38:11;;;;;;;11.00;7.40;;;;;;;25.32;48.92;100915.63;106246;1287;61416;-83
2022/06/02 10:40:55;;;;;;;9.80;7.80;;;;;;;25.31;49.03;100912.14;106194;1287;72762;-82
2022/06/02 10:43:30;;;;;;;10.90;7.50;;;;;;;25.30;48.98;100908.77;106311;1286;74692;-80
2022/06/02 10:46:11;;;;;;;10.90;7.90;;;;;;;25.30;49.20;100911.67;107074;1283;61102;-81
2022/06/02 10:48:39;;;;;;;10.50;7.70;;;;;;;25.29;49.30;100908.85;107021;1283;61327;-80
2022/06/02 10:51:08;;;;;;;12.40;7.80;;;;;;;25.29;49.31;100905.64;106943;1283;72564;-79
2022/06/02 10:54:11;;;;;;;13.50;7.70;;;;;;;25.28;49.46;100906.42;106918;1283;75747;-80
2022/06/02 10:56:37;;;;;;;11.50;7.80;;;;;;;25.27;49.43;100902.00;106839;1283;61131;-81
2022/06/02 10:59:24;;;;;;;14.20;7.70;;;;;;;25.26;49.56;100902.38;107089;1282;61263;-82
2022/06/02 11:01:57;;;;;;;12.10;8.10;;;;;;;25.26;49.66;100901.70;106790;1283;72642;-81
2022/06/02 11:04:57;;;;;;;11.70;7.50;;;;;;;25.25;49.53;100901.57;107001;1283;75123;-81
2022/06/02 11:07:44;;;;;;;12.30;8.00;;;;;;;25.25;49.83;100896.24;107225;1283;61208;-82
2022/06/02 11:10:28;;;;;;;10.70;7.50;;;;;;;25.25;49.77;100895.16;107116;1283;61073;-82
2022/06/02 11:13:06;;;;;;;11.80;8.10;;;;;;;25.24;49.81;100894.50;106885;1283;72641;-82
2022/06/02 11:15:47;;;;;;;10.90;8.10;;;;;;;25.24;49.85;100893.80;106810;1283;74572;-81
2022/06/02 11:18:52;;;;;;;10.30;7.90;;;;;;;25.23;49.76;100889.20;106956;1283;61336;-82
2022/06/02 11:21:43;;;;;;;10.30;7.90;;;;;;;25.22;49.78;100888.36;106902;1283;61291;-82
2022/06/02 11:24:58;;;;;;;11.40;7.80;;;;;;;25.22;49.92;100881.04;107178;1283;73666;-81
2022/06/02 11:27:48;;;;;;;10.70;7.10;;;;;;;25.21;49.91;100875.52;106084;1289;75888;-83
2022/06/02 11:30:35;;;;;;;12.40;7.50;;;;;;;25.20;49.95;100875.73;106337;1289;61564;-80
2022/06/02 11:33:22;;;;;;;11.50;7.60;;;;;;;25.20;50.05;100873.77;106089;1289;61164;-81
2022/06/02 11:36:06;;;;;;;11.60;7.90;;;;;;;25.20;50.08;100872.55;106260;1289;73932;-83
2022/06/02 11:38:53;;;;;;;12.90;7.40;;;;;;;25.19;49.99;100870.77;106363;1289;74518;-81
2022/06/02 11:41:25;;;;;;;11.80;7.80;;;;;;;25.19;50.06;100863.43;106090;1289;61313;-82
2022/06/02 11:43:53;;;;;;;12.80;8.20;;;;;;;25.20;50.14;100864.09;106361;1289;61380;-84
2022/06/02 11:46:33;;;;;;;15.50;8.20;;;;;;;25.19;50.28;100859.98;106316;1289;72720;-83
2022/06/02 11:49:18;;;;;;;10.30;8.20;;;;;;;25.20;50.20;100857.96;106011;1289;74556;-80
2022/06/02 11:51:55;;;;;;;13.30;8.00;;;;;;;25.19;50.30;100856.37;106185;1289;61203;-81
2022/06/02 11:54:26;;;;;;;11.00;7.40;;;;;;;25.19;50.16;100852.08;106244;1289;61441;-81
2022/06/02 11:57:11;;;;;;;9.30;7.60;;;;;;;25.20;50.32;100853.10;106102;1289;73855;-81
2022/06/02 12:00:15;;;;;;;10.80;7.70;;;;;;;25.20;50.40;100849.48;106080;1288;75588;-84
2022/06/02 12:03:13;;;;;;;13.40;8.00;;;;;;;25.20;50.33;100847.70;105312;1297;61360;-81
2022/06/02 12:06:13;;;;;;;14.50;8.30;;;;;;;25.20;50.46;100843.34;106648;1283;61206;-81
2022/06/02 12:09:21;;;;;;;11.00;7.90;;;;;;;25.21;50.40;100842.39;106976;1283;73955;-80
2022/06/02 12:11:53;;;;;;;11.60;7.90;;;;;;;25.21;50.50;100839.33;107017;1283;74806;-80
2022/06/02 12:14:34;;;;;;;12.40;7.90;;;;;;;25.21;50.58;100837.48;107036;1283;61292;-82
2022/06/02 12:17:39;;;;;;;12.60;8.10;;;;;;;25.22;50.44;100835.61;106927;1282;61310;-80
2022/06/02 12:20:26;;;;;;;10.30;7.80;;;;;;;25.23;50.43;100832.67;106824;1283;72641;-82
2022/06/02 12:23:39;;;;;;;10.30;7.50;;;;;;;25.23;50.54;100830.83;107095;1283;75869;-83
2022/06/02 12:26:23;;;;;;;11.40;7.10;;;;;;;25.24;50.53;100830.23;106349;1289;61228;-81
2022/06/02 12:29:07;;;;;;;12.10;8.20;;;;;;;25.24;50.40;100828.20;106340;1288;61286;-82
2022/06/02 12:31:56;;;;;;;9.80;8.20;;;;;;;25.25;50.68;100822.52;106243;1288;72549;-81
2022/06/02 12:34:51;;;;;;;11.80;8.30;;;;;;;25.25;50.46;100817.65;106239;1289;74627;-81
2022/06/02 12:37:40;;;;;;;9.80;7.60;;;;;;;25.25;50.36;100813.00;106222;1289;61230;-82
2022/06/02 12:40:28;;;;;;;10.80;7.60;;;;;;;25.25;50.47;100805.98;106397;1289;61316;-82
2022/06/02 12:43:18;;;;;;;12.90;7.90;;;;;;;25.26;50.50;100804.67;106363;1289;73673;-82